Time;durP1;ratioP1;P1;durP2;ratioP2;P2;SDS_P1;SDS_P2;PMS_P1;PMS_P2;Temp;Humidity;BMP_temperature;BMP_pressure;BME280_temperature;BME280_humidity;BME280_pressure;Samples;Min_cycle;Max_cycle;Signal;HPM_P1;HPM_P2
2021/06/12 00:00:30;;;;;;;8.77;7.87;;;18.80;98.30;;;;;;5125011;23;20446;-84
2021/06/12 00:02:33;;;;;;;10.07;7.80;;;18.70;98.30;;;;;;5117599;23;20416;-84
2021/06/12 00:04:35;;;;;;;11.37;7.87;;;18.70;98.30;;;;;;5118200;23;20467;-84
2021/06/12 00:06:38;;;;;;;11.90;8.23;;;18.60;98.30;;;;;;5124862;23;21034;-84
2021/06/12 00:08:43;;;;;;;10.53;7.60;;;18.60;98.30;;;;;;5124128;23;20441;-84
2021/06/12 00:10:45;;;;;;;10.17;7.30;;;18.60;98.30;;;;;;5116639;23;20450;-85
2021/06/12 00:12:48;;;;;;;9.67;7.37;;;18.70;98.30;;;;;;5124770;23;20501;-84
2021/06/12 00:14:51;;;;;;;12.03;8.83;;;18.70;98.30;;;;;;5126072;23;21136;-84
2021/06/12 00:16:55;;;;;;;10.77;8.40;;;18.60;98.30;;;;;;5116655;23;20440;-84
2021/06/12 00:18:57;;;;;;;12.33;8.40;;;18.60;98.30;;;;;;5124538;23;20453;-84
2021/06/12 00:21:00;;;;;;;9.93;7.87;;;18.50;98.30;;;;;;5116824;23;20509;-84
2021/06/12 00:23:02;;;;;;;11.27;8.70;;;18.60;98.30;;;;;;5124884;23;20887;-84
2021/06/12 00:25:06;;;;;;;12.30;9.37;;;18.60;98.30;;;;;;5123565;23;20430;-84
2021/06/12 00:27:09;;;;;;;10.80;8.77;;;18.70;98.30;;;;;;5124647;23;20430;-83
2021/06/12 00:29:12;;;;;;;10.60;9.23;;;18.70;98.30;;;;;;5124769;23;20943;-83
2021/06/12 00:31:14;;;;;;;13.10;10.60;;;18.70;98.30;;;;;;5124770;23;20467;-83
2021/06/12 00:33:19;;;;;;;13.23;10.53;;;18.70;98.30;;;;;;5127262;23;20461;-83
2021/06/12 00:35:22;;;;;;;15.13;11.10;;;18.70;98.30;;;;;;5130513;23;20522;-83
2021/06/12 00:37:24;;;;;;;14.73;12.30;;;18.90;98.30;;;;;;5117214;23;20430;-83
2021/06/12 00:39:27;;;;;;;14.80;11.73;;;18.90;98.30;;;;;;5129910;23;20917;-82
2021/06/12 00:41:30;;;;;;;15.57;10.37;;;18.90;98.30;;;;;;5132867;23;20485;-83
2021/06/12 00:43:32;;;;;;;15.27;11.40;;;19.00;98.30;;;;;;5133224;23;20888;-83
2021/06/12 00:45:35;;;;;;;18.40;11.20;;;19.10;98.30;;;;;;5125766;23;20430;-82
2021/06/12 00:47:38;;;;;;;16.03;11.13;;;19.20;98.30;;;;;;5126518;23;20445;-83
2021/06/12 00:49:42;;;;;;;12.83;11.10;;;19.40;98.30;;;;;;5126050;23;20436;-83
2021/06/12 00:51:44;;;;;;;11.87;9.63;;;19.40;98.30;;;;;;5125452;23;20481;-83
2021/06/12 00:53:47;;;;;;;12.77;10.37;;;19.20;98.30;;;;;;5125811;23;20469;-83
2021/06/12 00:55:53;;;;;;;10.20;9.10;;;19.10;98.30;;;;;;5117522;23;20441;-83
2021/06/12 00:57:56;;;;;;;13.27;9.90;;;19.10;98.30;;;;;;5125727;23;20453;-84
2021/06/12 00:59:59;;;;;;;12.10;9.60;;;18.90;98.30;;;;;;5126542;23;20504;-83
2021/06/12 01:02:01;;;;;;;11.40;10.03;;;18.90;98.30;;;;;;5116917;23;20461;-84
2021/06/12 01:04:04;;;;;;;11.47;9.30;;;18.80;98.30;;;;;;5125631;23;20432;-83
2021/06/12 01:06:09;;;;;;;11.10;9.60;;;18.80;98.30;;;;;;5125310;23;20429;-83
2021/06/12 01:08:12;;;;;;;11.57;9.90;;;18.80;98.30;;;;;;5125589;23;20930;-83
2021/06/12 01:10:16;;;;;;;11.17;8.93;;;18.70;98.30;;;;;;5125191;23;20998;-83
2021/06/12 01:12:25;;;;;;;12.30;9.90;;;18.70;98.30;;;;;;5125894;23;20432;-84
2021/06/12 01:14:31;;;;;;;14.60;10.87;;;18.80;98.30;;;;;;5126451;23;20441;-83
2021/06/12 01:16:39;;;;;;;14.20;11.10;;;18.90;98.30;;;;;;5117716;23;20509;-83
2021/06/12 01:18:45;;;;;;;14.40;10.53;;;18.90;98.30;;;;;;5117641;23;20428;-83
2021/06/12 01:21:08;;;;;;;16.53;12.87;;;18.80;98.30;;;;;;5125440;23;20451;-83
2021/06/12 01:23:59;;;;;;;15.00;11.50;;;18.70;98.30;;;;;;5125739;23;20437;-83
2021/06/12 01:26:10;;;;;;;16.80;10.43;;;18.60;98.30;;;;;;5001946;23;20509;-81
2021/06/12 01:28:41;;;;;;;15.77;10.87;;;18.60;98.30;;;;;;5086208;23;20453;-83
2021/06/12 01:30:48;;;;;;;16.43;10.93;;;18.60;98.30;;;;;;5117273;23;20456;-82
2021/06/12 01:32:54;;;;;;;15.40;11.57;;;18.60;98.30;;;;;;5125844;23;20465;-82
2021/06/12 01:34:58;;;;;;;15.47;11.43;;;18.50;98.30;;;;;;5126030;23;20529;-82
2021/06/12 01:37:02;;;;;;;16.83;11.13;;;18.50;98.30;;;;;;5125494;23;20428;-82
2021/06/12 01:39:05;;;;;;;14.00;11.80;;;18.40;98.30;;;;;;5126083;23;20472;-83
2021/06/12 01:41:09;;;;;;;21.97;14.37;;;18.50;98.30;;;;;;5126276;23;20445;-83
2021/06/12 01:43:14;;;;;;;21.13;13.30;;;18.40;98.30;;;;;;5117337;23;20426;-83
2021/06/12 01:45:17;;;;;;;16.10;12.60;;;18.40;98.30;;;;;;5125404;23;20413;-83
2021/06/12 01:47:21;;;;;;;21.80;14.80;;;18.40;98.30;;;;;;5116106;23;20429;-82
2021/06/12 01:49:25;;;;;;;60.73;40.87;;;18.40;98.30;;;;;;5125116;23;20418;-82
2021/06/12 01:51:27;;;;;;;18.93;13.87;;;18.40;98.30;;;;;;5117210;23;20528;-82
2021/06/12 01:53:31;;;;;;;15.53;12.50;;;18.40;98.30;;;;;;5116875;23;20446;-82
2021/06/12 01:55:35;;;;;;;15.27;12.10;;;18.40;98.30;;;;;;5116594;23;20500;-82
2021/06/12 01:57:41;;;;;;;20.63;12.53;;;18.40;98.30;;;;;;5124933;23;20421;-83
2021/06/12 01:59:43;;;;;;;15.93;12.10;;;18.50;98.30;;;;;;5125188;23;20402;-83
2021/06/12 02:01:49;;;;;;;15.60;11.77;;;18.50;98.30;;;;;;5116993;23;20513;-83
2021/06/12 02:03:54;;;;;;;16.03;11.40;;;18.50;98.30;;;;;;5125131;23;20442;-83
2021/06/12 02:05:58;;;;;;;13.47;11.57;;;18.50;98.30;;;;;;5116995;23;20414;-82
2021/06/12 02:08:02;;;;;;;14.20;11.03;;;18.50;98.30;;;;;;5124391;23;20435;-83
2021/06/12 02:10:06;;;;;;;14.10;11.53;;;18.40;98.30;;;;;;5116780;23;20430;-83
2021/06/12 02:12:09;;;;;;;13.97;11.27;;;18.40;98.30;;;;;;5125561;23;20418;-83
2021/06/12 02:14:14;;;;;;;15.50;12.13;;;18.40;98.30;;;;;;5119040;23;20558;-83
2021/06/12 02:16:18;;;;;;;14.13;11.43;;;18.50;98.30;;;;;;5118565;23;20435;-83
2021/06/12 02:18:26;;;;;;;12.67;10.27;;;18.50;98.30;;;;;;5124518;23;20424;-85
2021/06/12 02:20:32;;;;;;;16.67;11.40;;;18.50;98.30;;;;;;5124904;23;20445;-86
2021/06/12 02:22:37;;;;;;;13.03;10.93;;;18.50;98.30;;;;;;5125036;23;20456;-85
2021/06/12 02:24:40;;;;;;;13.57;9.73;;;18.50;98.30;;;;;;5125302;23;20438;-85
2021/06/12 02:26:47;;;;;;;13.57;10.90;;;18.60;98.30;;;;;;5124587;23;21161;-86
2021/06/12 02:28:51;;;;;;;11.73;9.53;;;18.70;98.30;;;;;;5123667;23;20464;-85
2021/06/12 02:31:01;;;;;;;12.67;9.90;;;18.60;98.30;;;;;;5123213;23;20446;-86
2021/06/12 02:33:08;;;;;;;12.10;10.20;;;18.60;98.30;;;;;;5123286;23;20433;-87
2021/06/12 02:35:11;;;;;;;14.33;11.53;;;18.60;98.30;;;;;;5123294;23;20532;-86
2021/06/12 02:37:16;;;;;;;12.10;10.13;;;18.60;98.30;;;;;;5123217;23;20418;-86
2021/06/12 02:39:18;;;;;;;14.53;11.87;;;18.60;98.30;;;;;;5122962;23;20456;-85
2021/06/12 02:41:22;;;;;;;15.40;10.20;;;18.50;98.30;;;;;;5122894;23;20477;-86
2021/06/12 02:43:25;;;;;;;14.27;10.63;;;18.50;98.30;;;;;;5123896;23;20422;-85
2021/06/12 02:45:28;;;;;;;13.80;10.53;;;18.50;98.30;;;;;;5116922;23;20899;-85
2021/06/12 02:47:32;;;;;;;12.63;10.50;;;18.70;98.30;;;;;;5124734;23;20846;-85
2021/06/12 02:49:37;;;;;;;15.20;11.07;;;18.90;98.30;;;;;;5116709;23;20498;-86
2021/06/12 02:51:43;;;;;;;13.60;11.47;;;18.90;98.30;;;;;;5124834;23;20533;-86
2021/06/12 02:53:48;;;;;;;12.43;10.80;;;19.00;98.30;;;;;;5124716;23;20437;-86
2021/06/12 02:55:53;;;;;;;15.63;11.87;;;19.10;98.30;;;;;;5124643;23;20434;-86
2021/06/12 02:57:56;;;;;;;14.60;12.00;;;19.10;98.30;;;;;;5116314;23;20430;-85
2021/06/12 03:00:01;;;;;;;16.27;12.20;;;19.00;98.30;;;;;;5124572;23;20430;-85
2021/06/12 03:02:05;;;;;;;16.80;11.70;;;18.90;98.30;;;;;;5124718;23;20485;-86
2021/06/12 03:04:12;;;;;;;16.33;12.17;;;18.80;98.30;;;;;;5124720;23;20426;-86
2021/06/12 03:06:18;;;;;;;15.37;11.73;;;18.80;98.30;;;;;;5124635;23;20446;-85
2021/06/12 03:08:24;;;;;;;16.40;13.37;;;18.80;98.30;;;;;;5115999;23;20502;-86
2021/06/12 03:10:30;;;;;;;14.17;11.97;;;18.80;98.30;;;;;;5124825;23;20451;-86
2021/06/12 03:12:35;;;;;;;14.67;12.07;;;18.90;98.30;;;;;;5116471;23;20422;-86
2021/06/12 03:14:41;;;;;;;16.30;12.63;;;18.90;98.30;;;;;;5124650;23;20496;-86
2021/06/12 03:16:46;;;;;;;19.47;12.80;;;18.90;98.30;;;;;;5124699;23;20501;-86
2021/06/12 03:18:50;;;;;;;17.00;12.47;;;18.80;98.30;;;;;;5124473;23;20426;-86
2021/06/12 03:23:09;;;;;;;15.83;14.00;;;18.90;98.30;;;;;;5111646;22;20454;-82
2021/06/12 03:25:42;;;;;;;18.10;14.03;;;18.80;98.30;;;;;;5094280;23;20429;-82
2021/06/12 03:31:22;;;;;;;19.10;13.90;;;18.40;98.30;;;;;;4251200;27;20794;-82
2021/06/12 03:36:11;;;;;;;16.90;13.60;;;18.50;98.30;;;;;;4238339;28;20556;-83
2021/06/12 03:38:37;;;;;;;20.87;14.00;;;18.40;98.30;;;;;;4230068;28;20464;-83
2021/06/12 03:40:48;;;;;;;21.07;14.13;;;18.40;98.30;;;;;;4238844;27;20488;-83
2021/06/12 03:43:19;;;;;;;19.27;14.90;;;18.30;98.30;;;;;;4222624;28;20465;-82
2021/06/12 03:48:14;;;;;;;19.00;13.23;;;18.10;98.30;;;;;;4228311;28;20845;-82
2021/06/12 04:10:57;;;;;;;14.27;9.77;;;18.20;98.30;;;;;;3989813;29;20582;-83
2021/06/12 04:44:09;;;;;;;15.17;11.30;;;18.50;98.30;;;;;;3957850;29;20483;-82
2021/06/12 18:35:43;;;;;;;8.37;3.27;;;18.50;89.10;;;;;;4171486;28;20476;-80
2021/06/12 18:37:47;;;;;;;10.17;3.63;;;18.40;89.00;;;;;;4172357;28;20491;-80
2021/06/12 18:39:50;;;;;;;5.57;3.53;;;18.40;88.90;;;;;;4170117;28;20474;-81
2021/06/12 18:41:52;;;;;;;5.70;3.70;;;18.30;89.10;;;;;;4169769;28;20479;-83
2021/06/12 18:43:55;;;;;;;7.60;3.70;;;18.30;89.40;;;;;;4170865;28;20465;-82
2021/06/12 18:45:57;;;;;;;4.23;3.70;;;18.30;89.50;;;;;;4174416;28;20473;-81
2021/06/12 18:48:00;;;;;;;8.07;3.60;;;18.30;89.50;;;;;;4171637;28;21059;-81
2021/06/12 18:50:03;;;;;;;7.00;3.50;;;18.30;90.10;;;;;;4175950;28;20483;-81
2021/06/12 18:52:07;;;;;;;7.50;3.73;;;18.30;90.30;;;;;;4168690;28;20891;-81
2021/06/12 18:54:10;;;;;;;6.30;4.10;;;18.30;90.40;;;;;;4163347;28;20556;-81
2021/06/12 18:56:12;;;;;;;6.40;4.50;;;18.20;90.50;;;;;;4174899;28;20468;-81
2021/06/12 18:58:15;;;;;;;6.43;4.03;;;18.20;90.40;;;;;;4176633;28;20978;-81
2021/06/12 19:00:19;;;;;;;8.13;4.30;;;18.20;90.60;;;;;;4174085;28;20554;-82
2021/06/12 19:02:22;;;;;;;7.37;4.10;;;18.20;91.00;;;;;;4171683;28;20516;-82
2021/06/12 19:04:24;;;;;;;12.10;4.20;;;18.20;91.40;;;;;;4170893;28;20477;-81
2021/06/12 19:06:27;;;;;;;14.10;4.20;;;18.20;91.50;;;;;;4169774;28;20534;-81
2021/06/12 19:08:31;;;;;;;9.90;4.20;;;18.20;91.80;;;;;;4169319;28;20467;-80
2021/06/12 19:10:34;;;;;;;6.57;4.00;;;18.20;91.80;;;;;;4176683;28;20543;-81
2021/06/12 19:12:36;;;;;;;8.40;4.90;;;18.20;92.20;;;;;;4174002;28;20947;-81
2021/06/12 19:14:39;;;;;;;9.00;4.77;;;18.20;92.40;;;;;;4172542;28;20492;-82
2021/06/12 19:16:41;;;;;;;6.90;4.10;;;18.30;92.40;;;;;;4174020;28;20464;-81
2021/06/12 19:18:46;;;;;;;15.03;4.97;;;18.30;92.60;;;;;;4174623;28;20854;-82
2021/06/12 19:20:48;;;;;;;11.40;6.60;;;18.40;92.70;;;;;;4172982;28;20464;-82
2021/06/12 19:22:53;;;;;;;16.73;10.03;;;18.40;92.90;;;;;;4173594;28;20484;-82
2021/06/12 19:24:58;;;;;;;13.33;8.73;;;18.40;93.00;;;;;;4171861;28;20468;-82
2021/06/12 19:27:01;;;;;;;7.23;4.53;;;18.50;93.20;;;;;;4179729;28;20551;-83
2021/06/12 19:29:13;;;;;;;9.67;5.50;;;18.50;93.00;;;;;;4180835;28;20463;-81
2021/06/12 19:31:21;;;;;;;11.33;5.30;;;18.40;93.30;;;;;;4178888;28;20502;-82
2021/06/12 19:33:24;;;;;;;14.03;4.90;;;18.30;93.40;;;;;;4174678;28;20478;-81
2021/06/12 19:35:31;;;;;;;8.87;5.60;;;18.20;92.40;;;;;;4175752;28;20464;-82
2021/06/12 19:37:40;;;;;;;9.17;5.10;;;18.10;91.10;;;;;;4169964;28;20563;-82
2021/06/12 19:39:43;;;;;;;8.53;4.40;;;18.00;89.40;;;;;;4169429;28;20461;-82
2021/06/12 19:41:47;;;;;;;10.57;5.50;;;17.90;89.30;;;;;;4165136;28;20488;-83
2021/06/12 19:43:51;;;;;;;10.70;5.20;;;17.80;89.40;;;;;;4168477;28;20475;-83
2021/06/12 19:45:54;;;;;;;8.80;5.20;;;17.60;90.10;;;;;;4171682;28;20475;-83
2021/06/12 19:47:57;;;;;;;10.40;4.83;;;17.50;90.70;;;;;;4173939;28;20470;-83
2021/06/12 19:50:01;;;;;;;5.90;4.80;;;17.60;91.00;;;;;;4170326;28;20845;-82
2021/06/12 19:52:06;;;;;;;12.37;5.17;;;17.70;90.70;;;;;;4170976;28;20492;-82
2021/06/12 19:54:08;;;;;;;9.03;5.13;;;17.60;90.80;;;;;;4174779;28;20464;-82
2021/06/12 19:56:12;;;;;;;9.10;4.80;;;17.60;91.30;;;;;;4171958;28;20464;-82
2021/06/12 19:58:16;;;;;;;7.17;5.40;;;17.60;91.30;;;;;;4176053;28;20491;-83
2021/06/12 20:00:19;;;;;;;7.90;5.47;;;17.60;91.70;;;;;;4177462;28;20464;-83
2021/06/12 20:02:25;;;;;;;8.30;5.50;;;17.50;91.60;;;;;;4171480;28;20562;-83
2021/06/12 20:04:27;;;;;;;9.17;5.80;;;17.50;92.20;;;;;;4167928;28;20907;-82
2021/06/12 20:06:30;;;;;;;9.30;5.77;;;17.40;92.40;;;;;;4176333;28;20499;-83
2021/06/12 20:08:32;;;;;;;12.50;6.50;;;17.40;92.40;;;;;;4166273;28;20552;-83
2021/06/12 20:10:35;;;;;;;10.80;7.20;;;17.50;92.40;;;;;;4180572;28;20468;-83
2021/06/12 20:12:37;;;;;;;12.47;5.50;;;17.30;92.70;;;;;;4175625;28;20488;-83
2021/06/12 20:14:41;;;;;;;10.23;5.83;;;17.30;92.90;;;;;;4179726;28;20467;-82
2021/06/12 20:16:43;;;;;;;9.47;4.53;;;17.40;92.50;;;;;;4176335;28;20547;-83
2021/06/12 20:18:47;;;;;;;9.10;5.27;;;17.40;92.60;;;;;;4179502;28;20492;-83
2021/06/12 20:20:50;;;;;;;8.03;4.77;;;17.30;92.60;;;;;;4176615;28;20831;-83
2021/06/12 20:22:53;;;;;;;13.93;5.43;;;17.20;92.70;;;;;;4174397;28;20485;-83
2021/06/12 20:24:56;;;;;;;8.07;4.83;;;17.20;92.80;;;;;;4175276;28;20467;-83
2021/06/12 20:27:01;;;;;;;11.67;4.93;;;17.10;92.10;;;;;;4174482;28;20461;-83
2021/06/12 20:29:04;;;;;;;8.90;4.60;;;17.00;92.30;;;;;;4177226;28;20472;-83
2021/06/12 20:31:07;;;;;;;8.20;4.60;;;17.10;92.60;;;;;;4179973;28;20464;-83
2021/06/12 20:33:10;;;;;;;6.23;4.50;;;17.10;92.20;;;;;;4170667;28;20468;-83
2021/06/12 20:35:13;;;;;;;11.93;4.33;;;17.10;92.50;;;;;;4169227;28;20479;-83
2021/06/12 20:37:16;;;;;;;9.43;5.07;;;17.10;92.20;;;;;;4176886;28;20490;-83
2021/06/12 20:39:18;;;;;;;26.10;14.20;;;17.10;92.00;;;;;;4178307;28;20476;-83
2021/06/12 20:41:21;;;;;;;24.80;15.33;;;17.10;92.30;;;;;;4179081;28;20563;-82
2021/06/12 20:43:23;;;;;;;21.00;12.60;;;17.10;92.60;;;;;;4179831;28;20551;-83
2021/06/12 20:45:25;;;;;;;8.30;5.40;;;17.00;92.40;;;;;;4175394;28;20547;-84
2021/06/12 20:47:29;;;;;;;13.50;7.00;;;16.80;92.70;;;;;;4181605;28;20460;-81
2021/06/12 20:49:32;;;;;;;10.90;6.40;;;16.80;93.40;;;;;;4180980;28;20492;-83
2021/06/12 20:51:34;;;;;;;8.23;5.33;;;16.80;93.00;;;;;;4182141;28;20488;-83
2021/06/12 20:53:37;;;;;;;20.63;12.97;;;16.80;93.00;;;;;;4176989;28;20584;-83
2021/06/12 20:55:39;;;;;;;29.47;18.97;;;16.60;93.30;;;;;;4178238;28;20459;-82
2021/06/12 20:57:42;;;;;;;20.10;11.20;;;16.60;94.00;;;;;;4179434;28;20470;-82
2021/06/12 20:59:44;;;;;;;9.10;6.27;;;16.70;93.50;;;;;;4181461;28;20579;-83
2021/06/12 21:01:47;;;;;;;13.43;8.80;;;16.70;93.30;;;;;;4173481;28;20480;-83
2021/06/12 21:03:51;;;;;;;11.10;7.30;;;16.70;93.30;;;;;;4169501;28;20478;-83
2021/06/12 21:05:54;;;;;;;11.10;7.27;;;16.60;93.40;;;;;;4176044;28;21112;-82
2021/06/12 21:07:57;;;;;;;13.90;7.70;;;16.60;93.60;;;;;;4172289;28;20460;-83
2021/06/12 21:10:00;;;;;;;12.17;6.17;;;16.50;93.80;;;;;;4181099;28;20491;-83
2021/06/12 21:12:03;;;;;;;7.83;5.10;;;16.60;93.60;;;;;;4167832;28;20563;-83
2021/06/12 21:14:05;;;;;;;28.57;19.33;;;16.60;93.40;;;;;;4174038;28;20464;-82
2021/06/12 21:16:08;;;;;;;15.80;8.17;;;16.60;93.60;;;;;;4178930;28;20878;-83
2021/06/12 21:18:10;;;;;;;24.93;15.40;;;16.50;93.30;;;;;;4178638;28;20464;-83
2021/06/12 21:20:15;;;;;;;15.30;6.20;;;16.50;93.60;;;;;;4180731;28;20476;-84
2021/06/12 21:22:18;;;;;;;9.07;4.23;;;16.50;93.20;;;;;;4180973;28;20491;-82
2021/06/12 21:24:20;;;;;;;10.57;4.60;;;16.40;93.20;;;;;;4177725;28;20547;-83
2021/06/12 21:26:23;;;;;;;9.33;4.17;;;16.40;93.50;;;;;;4179771;28;20464;-82
2021/06/12 21:28:26;;;;;;;7.00;4.57;;;16.40;93.50;;;;;;4172592;28;20456;-83
2021/06/12 21:30:28;;;;;;;6.33;4.10;;;16.30;93.80;;;;;;4171706;28;20469;-83
2021/06/12 21:32:31;;;;;;;6.67;3.63;;;16.30;93.80;;;;;;4173779;28;20498;-83
2021/06/12 21:34:33;;;;;;;8.20;4.60;;;16.20;93.90;;;;;;4178129;28;20484;-82
2021/06/12 21:36:37;;;;;;;5.13;4.17;;;16.30;93.80;;;;;;4177554;28;20479;-83
2021/06/12 21:38:40;;;;;;;8.53;4.17;;;16.30;93.80;;;;;;4179606;28;20567;-83
2021/06/12 21:40:42;;;;;;;10.77;4.20;;;16.20;94.30;;;;;;4176004;28;20469;-83
2021/06/12 21:42:45;;;;;;;6.27;4.30;;;16.20;94.50;;;;;;4176862;28;20492;-83
2021/06/12 21:44:48;;;;;;;11.30;5.60;;;16.20;94.40;;;;;;4168105;28;20457;-83
2021/06/12 21:46:51;;;;;;;7.73;3.90;;;16.30;94.30;;;;;;4172267;28;20471;-83
2021/06/12 21:48:53;;;;;;;6.73;4.23;;;16.30;94.40;;;;;;4176881;28;20539;-83
2021/06/12 21:50:56;;;;;;;37.40;21.63;;;16.30;94.10;;;;;;4178290;28;21010;-83
2021/06/12 21:52:59;;;;;;;29.87;16.20;;;16.30;94.60;;;;;;4178287;28;20597;-82
2021/06/12 21:55:02;;;;;;;27.97;19.00;;;16.30;94.60;;;;;;4180190;28;20467;-82
2021/06/12 21:57:06;;;;;;;10.07;5.60;;;16.30;95.00;;;;;;4171718;28;20468;-82
2021/06/12 21:59:08;;;;;;;7.60;5.70;;;16.20;95.10;;;;;;4179250;28;20507;-82
2021/06/12 22:01:12;;;;;;;9.50;5.70;;;16.10;95.30;;;;;;4177202;28;20594;-82
2021/06/12 22:03:15;;;;;;;10.60;5.10;;;16.20;95.20;;;;;;4172935;28;20540;-83
2021/06/12 22:05:17;;;;;;;10.23;5.60;;;16.20;95.00;;;;;;4170070;28;20476;-82
2021/06/12 22:07:20;;;;;;;10.20;5.43;;;16.10;95.40;;;;;;4171109;28;20472;-82
2021/06/12 22:09:24;;;;;;;9.60;4.97;;;16.10;95.30;;;;;;4171435;28;20468;-82
2021/06/12 22:11:26;;;;;;;10.70;5.43;;;16.10;95.80;;;;;;4175683;28;20507;-82
2021/06/12 22:13:30;;;;;;;9.73;4.67;;;16.10;95.90;;;;;;4175449;28;20460;-82
2021/06/12 22:15:32;;;;;;;9.73;5.20;;;16.00;96.00;;;;;;4174769;28;20472;-82
2021/06/12 22:17:35;;;;;;;6.53;4.57;;;16.00;96.30;;;;;;4177145;28;20464;-83
2021/06/12 22:19:42;;;;;;;10.30;5.10;;;15.90;96.40;;;;;;4173067;28;21229;-82
2021/06/12 22:21:45;;;;;;;9.70;5.30;;;15.90;96.70;;;;;;4176293;28;21180;-82
2021/06/12 22:23:47;;;;;;;10.70;6.13;;;15.90;96.90;;;;;;4174459;28;20539;-82
2021/06/12 22:25:51;;;;;;;9.90;4.50;;;15.90;97.00;;;;;;4168196;28;20479;-83
2021/06/12 22:27:53;;;;;;;8.47;4.57;;;16.00;96.70;;;;;;4173492;28;20474;-83
2021/06/12 22:29:56;;;;;;;8.83;5.67;;;15.90;97.00;;;;;;4172062;28;20464;-82
2021/06/12 22:31:59;;;;;;;12.27;6.13;;;15.90;97.00;;;;;;4178299;28;20495;-82
2021/06/12 22:34:02;;;;;;;8.70;4.40;;;15.80;97.20;;;;;;4178802;28;20471;-82
2021/06/12 22:36:05;;;;;;;6.97;4.43;;;15.80;97.50;;;;;;4171526;28;20546;-82
2021/06/12 22:38:07;;;;;;;10.17;4.57;;;15.90;97.40;;;;;;4170355;28;20464;-82
2021/06/12 22:40:11;;;;;;;5.90;3.97;;;16.00;97.20;;;;;;4175357;28;20830;-82
2021/06/12 22:42:15;;;;;;;9.47;4.20;;;15.90;97.20;;;;;;4162919;28;20492;-82
2021/06/12 22:44:17;;;;;;;8.77;4.40;;;15.90;97.40;;;;;;4175521;28;20510;-82
2021/06/12 22:46:20;;;;;;;6.33;4.37;;;15.80;97.80;;;;;;4176425;28;20481;-83
2021/06/12 22:48:22;;;;;;;8.60;4.27;;;15.90;97.70;;;;;;4173916;28;20487;-82
2021/06/12 22:50:25;;;;;;;9.63;4.57;;;15.80;97.70;;;;;;4179432;28;20973;-82
2021/06/12 22:52:28;;;;;;;10.13;4.53;;;15.80;98.00;;;;;;4175752;28;20521;-83
2021/06/12 22:54:30;;;;;;;10.80;5.03;;;15.70;98.20;;;;;;4174626;28;20838;-83
2021/06/12 22:56:33;;;;;;;10.57;4.77;;;15.80;98.20;;;;;;4162637;28;20475;-83
2021/06/12 22:58:37;;;;;;;12.43;5.80;;;15.80;98.30;;;;;;4162398;28;20468;-82
2021/06/12 23:00:40;;;;;;;9.20;4.80;;;15.90;98.20;;;;;;4166234;28;20504;-82
2021/06/12 23:02:42;;;;;;;16.10;5.60;;;15.90;98.00;;;;;;4163875;28;20495;-82
2021/06/12 23:04:45;;;;;;;6.93;4.47;;;15.90;98.10;;;;;;4178011;28;20495;-82
2021/06/12 23:06:48;;;;;;;8.73;4.57;;;15.90;98.30;;;;;;4165753;28;20456;-83
2021/06/12 23:08:50;;;;;;;8.27;4.87;;;15.80;98.30;;;;;;4185700;28;20914;-83
2021/06/12 23:10:53;;;;;;;10.03;4.33;;;15.90;98.30;;;;;;4174741;28;20464;-83
2021/06/12 23:12:55;;;;;;;10.77;4.10;;;16.00;98.30;;;;;;4175136;28;20488;-82
2021/06/12 23:14:59;;;;;;;8.30;4.70;;;16.00;98.30;;;;;;4177422;28;20918;-82
2021/06/12 23:17:02;;;;;;;9.00;4.67;;;16.00;98.30;;;;;;4172887;28;20468;-83
2021/06/12 23:19:04;;;;;;;9.23;5.03;;;16.00;98.30;;;;;;4173961;28;20471;-84
2021/06/12 23:21:07;;;;;;;9.43;4.97;;;16.00;98.30;;;;;;4167225;28;20461;-83
2021/06/12 23:23:10;;;;;;;10.50;4.37;;;16.00;98.30;;;;;;4178189;28;20471;-83
2021/06/12 23:25:13;;;;;;;16.63;4.80;;;16.00;98.30;;;;;;4177834;28;20468;-83
2021/06/12 23:27:16;;;;;;;7.57;4.33;;;16.00;98.30;;;;;;4179096;28;20470;-83
2021/06/12 23:29:18;;;;;;;9.40;4.70;;;16.10;98.30;;;;;;4178720;28;20460;-83
2021/06/12 23:31:22;;;;;;;8.50;4.60;;;16.10;98.30;;;;;;4175685;28;20575;-83
2021/06/12 23:33:25;;;;;;;12.43;4.90;;;16.10;98.30;;;;;;4169041;28;20529;-82
2021/06/12 23:35:28;;;;;;;7.63;4.67;;;16.20;98.30;;;;;;4162687;28;20518;-83
2021/06/12 23:37:30;;;;;;;21.87;5.73;;;16.20;98.30;;;;;;4171621;28;20464;-83
2021/06/12 23:39:33;;;;;;;12.10;5.60;;;16.20;98.30;;;;;;4178837;28;20484;-83
2021/06/12 23:41:35;;;;;;;8.10;4.80;;;16.30;98.30;;;;;;4164002;28;20476;-83
2021/06/12 23:43:38;;;;;;;8.07;4.27;;;16.30;98.30;;;;;;4170234;28;20468;-83
2021/06/12 23:45:40;;;;;;;7.93;4.53;;;16.30;98.30;;;;;;4177204;28;20473;-83
2021/06/12 23:47:45;;;;;;;11.10;5.03;;;16.30;98.30;;;;;;4176368;28;20467;-83
2021/06/12 23:49:47;;;;;;;7.50;4.50;;;16.30;98.30;;;;;;4177290;28;20490;-83
2021/06/12 23:51:49;;;;;;;22.50;12.77;;;16.20;98.30;;;;;;4173972;28;20497;-83
2021/06/12 23:53:52;;;;;;;14.73;8.20;;;16.10;98.30;;;;;;4181118;28;20490;-83
2021/06/12 23:55:54;;;;;;;15.60;7.37;;;16.00;98.30;;;;;;4177842;28;20463;-83
2021/06/12 23:57:57;;;;;;;12.27;4.57;;;16.10;98.30;;;;;;4181486;28;20468;-83
2021/06/12 23:59:59;;;;;;;15.93;4.90;;;16.10;98.30;;;;;;4181899;28;20865;-83
